Time;durP1;ratioP1;P1;durP2;ratioP2;P2;SDS_P1;SDS_P2;PMS_P1;PMS_P2;Temp;Humidity;BMP_temperature;BMP_pressure;BME280_temperature;BME280_humidity;BME280_pressure;Samples;Min_cycle;Max_cycle;Signal;HPM_P1;HPM_P2
2024/02/14 00:04:26;;;;;;;1.80;1.17;;;;;;;;;;10390933;28;20502;-73
2024/02/14 00:09:29;;;;;;;2.28;1.10;;;;;;;;;;10400044;28;20049;-73
2024/02/14 00:14:32;;;;;;;3.15;1.17;;;;;;;;;;10405239;28;20048;-73
2024/02/14 00:19:37;;;;;;;2.53;0.90;;;;;;;;;;10400220;28;20038;-73
2024/02/14 00:24:40;;;;;;;2.50;0.80;;;;;;;;;;10404294;28;20543;-73
2024/02/14 00:29:45;;;;;;;1.77;0.75;;;;;;;;;;10401755;28;20045;-73
2024/02/14 00:34:50;;;;;;;1.60;0.60;;;;;;;;;;10416987;28;20140;-73
2024/02/14 00:39:53;;;;;;;2.05;1.17;;;;;;;;;;10405327;28;20349;-73
2024/02/14 00:44:57;;;;;;;1.60;0.80;;;;;;;;;;10401995;28;20052;-73
2024/02/14 00:50:01;;;;;;;0.95;0.85;;;;;;;;;;10412561;28;20037;-73
2024/02/14 00:55:05;;;;;;;1.42;0.88;;;;;;;;;;10416407;28;20581;-73
2024/02/14 01:00:09;;;;;;;3.42;1.27;;;;;;;;;;10408349;28;20040;-73
2024/02/14 01:05:14;;;;;;;1.85;1.00;;;;;;;;;;10395460;28;20072;-73
2024/02/14 01:10:18;;;;;;;1.08;0.90;;;;;;;;;;10402976;28;20053;-73
2024/02/14 01:15:21;;;;;;;1.98;1.38;;;;;;;;;;10392964;28;20041;-73
2024/02/14 01:20:26;;;;;;;2.78;1.20;;;;;;;;;;10396410;28;20056;-73
2024/02/14 01:25:29;;;;;;;3.00;1.00;;;;;;;;;;10406703;28;20128;-72
2024/02/14 01:30:33;;;;;;;3.97;1.20;;;;;;;;;;10403394;28;20053;-73
2024/02/14 01:35:37;;;;;;;2.45;1.30;;;;;;;;;;10401893;28;20756;-73
2024/02/14 01:40:44;;;;;;;1.38;0.90;;;;;;;;;;10411431;28;20049;-73
2024/02/14 01:45:47;;;;;;;2.00;1.10;;;;;;;;;;10406085;28;20044;-73
2024/02/14 01:50:52;;;;;;;2.38;0.70;;;;;;;;;;10393806;28;20045;-73
2024/02/14 01:55:55;;;;;;;0.90;0.82;;;;;;;;;;10403217;28;20087;-73
2024/02/14 02:00:58;;;;;;;2.17;1.20;;;;;;;;;;10406454;28;20052;-72
2024/02/14 02:06:04;;;;;;;1.35;0.80;;;;;;;;;;10395149;28;20041;-73
2024/02/14 02:11:07;;;;;;;1.13;1.00;;;;;;;;;;10380494;28;20411;-73
2024/02/14 02:16:11;;;;;;;3.28;0.73;;;;;;;;;;10400497;28;20038;-73
2024/02/14 02:21:19;;;;;;;0.73;0.60;;;;;;;;;;10394894;28;20058;-73
2024/02/14 02:26:25;;;;;;;1.40;0.68;;;;;;;;;;10406502;28;20049;-73
2024/02/14 02:31:28;;;;;;;1.07;0.90;;;;;;;;;;10405436;28;20046;-73
2024/02/14 02:36:31;;;;;;;1.67;0.95;;;;;;;;;;10415046;28;20046;-72
2024/02/14 02:41:36;;;;;;;1.83;1.15;;;;;;;;;;10411504;28;20038;-73
2024/02/14 02:46:39;;;;;;;2.28;0.70;;;;;;;;;;10412002;28;20040;-73
2024/02/14 02:51:42;;;;;;;1.25;0.70;;;;;;;;;;10417484;28;20041;-73
2024/02/14 02:56:47;;;;;;;1.85;1.05;;;;;;;;;;10418183;28;20048;-72
2024/02/14 03:01:50;;;;;;;3.42;1.30;;;;;;;;;;10415453;28;20051;-73
2024/02/14 03:06:53;;;;;;;4.07;1.35;;;;;;;;;;10417119;28;20045;-73
2024/02/14 03:11:58;;;;;;;1.95;1.10;;;;;;;;;;10417572;28;20123;-73
2024/02/14 03:17:01;;;;;;;4.60;1.52;;;;;;;;;;10408838;28;20542;-73
2024/02/14 03:22:08;;;;;;;2.08;1.10;;;;;;;;;;10404767;28;20068;-73
2024/02/14 03:27:13;;;;;;;2.65;1.20;;;;;;;;;;10408894;28;20045;-73
2024/02/14 03:32:17;;;;;;;4.15;1.83;;;;;;;;;;10399326;28;20779;-73
2024/02/14 03:37:20;;;;;;;4.38;1.85;;;;;;;;;;10404984;28;20041;-73
2024/02/14 03:42:26;;;;;;;3.17;1.42;;;;;;;;;;10408687;28;20049;-73
2024/02/14 03:47:31;;;;;;;2.40;1.20;;;;;;;;;;10403877;28;20515;-73
2024/02/14 03:52:34;;;;;;;2.50;1.42;;;;;;;;;;10412104;28;20045;-73
2024/02/14 03:57:39;;;;;;;1.42;0.90;;;;;;;;;;10407450;28;20065;-73
2024/02/14 04:02:42;;;;;;;6.13;1.80;;;;;;;;;;10416701;28;20541;-73
2024/02/14 04:07:49;;;;;;;1.77;1.20;;;;;;;;;;10400507;28;20041;-72
2024/02/14 04:12:53;;;;;;;1.90;1.23;;;;;;;;;;10410538;28;20053;-73
2024/02/14 04:17:56;;;;;;;1.40;0.93;;;;;;;;;;10386308;28;20048;-73
2024/02/14 04:23:00;;;;;;;2.63;1.38;;;;;;;;;;10403218;28;20064;-73
2024/02/14 04:28:05;;;;;;;1.95;1.38;;;;;;;;;;10398571;28;20068;-73
2024/02/14 04:33:09;;;;;;;3.08;1.40;;;;;;;;;;10400005;28;20127;-73
2024/02/14 04:38:15;;;;;;;2.20;1.10;;;;;;;;;;10395318;28;20049;-73
2024/02/14 04:43:20;;;;;;;1.35;0.70;;;;;;;;;;10392315;28;20053;-73
2024/02/14 04:48:23;;;;;;;1.48;1.00;;;;;;;;;;10387803;28;20050;-73
2024/02/14 04:53:26;;;;;;;3.40;1.30;;;;;;;;;;10391422;28;20771;-73
2024/02/14 04:58:31;;;;;;;1.75;1.08;;;;;;;;;;10387627;28;20053;-73
2024/02/14 05:03:34;;;;;;;3.03;1.50;;;;;;;;;;10375191;28;20408;-73
2024/02/14 05:08:37;;;;;;;3.70;1.05;;;;;;;;;;10406224;28;20637;-73
2024/02/14 05:13:43;;;;;;;1.48;1.00;;;;;;;;;;10396635;28;20128;-73
2024/02/14 05:18:47;;;;;;;1.75;1.27;;;;;;;;;;10400748;28;20052;-73
2024/02/14 05:23:50;;;;;;;2.80;1.30;;;;;;;;;;10403151;28;20049;-73
2024/02/14 05:28:55;;;;;;;1.58;0.90;;;;;;;;;;10408213;28;20434;-73
2024/02/14 05:33:58;;;;;;;1.48;0.77;;;;;;;;;;10405939;28;20079;-73
2024/02/14 05:39:02;;;;;;;1.67;1.17;;;;;;;;;;10400703;28;20052;-73
2024/02/14 05:44:06;;;;;;;2.22;1.40;;;;;;;;;;10393023;28;20121;-73
2024/02/14 05:49:10;;;;;;;2.38;1.10;;;;;;;;;;10397137;28;20060;-73
2024/02/14 05:54:13;;;;;;;2.40;1.23;;;;;;;;;;10398987;28;20961;-73
2024/02/14 05:59:18;;;;;;;2.90;1.20;;;;;;;;;;10394501;28;20049;-73
2024/02/14 06:04:21;;;;;;;1.38;0.90;;;;;;;;;;10400127;28;20045;-73
2024/02/14 06:09:25;;;;;;;1.58;0.80;;;;;;;;;;10410350;28;20519;-73
2024/02/14 06:14:30;;;;;;;1.20;0.90;;;;;;;;;;10387070;28;20045;-73
2024/02/14 06:19:34;;;;;;;2.05;1.25;;;;;;;;;;10400515;28;20045;-73
2024/02/14 06:24:39;;;;;;;2.47;0.90;;;;;;;;;;10405157;28;20051;-73
2024/02/14 06:29:44;;;;;;;2.08;1.20;;;;;;;;;;10410939;28;20033;-72
2024/02/14 06:34:48;;;;;;;1.23;0.97;;;;;;;;;;10396917;28;20047;-73
2024/02/14 06:39:51;;;;;;;1.10;1.00;;;;;;;;;;10405717;28;20120;-73
2024/02/14 06:44:56;;;;;;;2.13;1.10;;;;;;;;;;10401680;28;20406;-73
2024/02/14 06:49:59;;;;;;;1.42;0.73;;;;;;;;;;10397104;28;20045;-73
2024/02/14 06:55:03;;;;;;;1.27;0.80;;;;;;;;;;10404020;28;20051;-73
2024/02/14 07:00:10;;;;;;;1.35;0.70;;;;;;;;;;10406332;28;20037;-73
2024/02/14 07:05:14;;;;;;;1.30;0.90;;;;;;;;;;10404767;28;20127;-73
2024/02/14 07:10:17;;;;;;;1.50;0.90;;;;;;;;;;10397646;28;20108;-72
2024/02/14 07:15:25;;;;;;;1.58;1.13;;;;;;;;;;10384321;28;20045;-72
2024/02/14 07:20:30;;;;;;;1.40;1.10;;;;;;;;;;10395945;28;20457;-73
2024/02/14 07:25:33;;;;;;;1.40;0.93;;;;;;;;;;10390058;28;20092;-73
2024/02/14 07:30:37;;;;;;;1.13;0.70;;;;;;;;;;10397983;28;20053;-73
2024/02/14 07:35:42;;;;;;;1.75;1.05;;;;;;;;;;10392152;28;20526;-73
2024/02/14 07:40:45;;;;;;;1.27;0.90;;;;;;;;;;10395637;28;20030;-73
2024/02/14 07:45:50;;;;;;;0.77;0.77;;;;;;;;;;10404689;28;20533;-73
2024/02/14 07:50:53;;;;;;;0.60;0.60;;;;;;;;;;10390988;28;20076;-73
2024/02/14 07:55:56;;;;;;;1.17;0.57;;;;;;;;;;10408635;28;20044;-73
2024/02/14 08:01:03;;;;;;;0.95;0.50;;;;;;;;;;10398183;28;20052;-73
2024/02/14 08:06:07;;;;;;;0.95;0.73;;;;;;;;;;10400566;28;20728;-73
2024/02/14 08:11:10;;;;;;;0.50;0.50;;;;;;;;;;10406567;28;20081;-73
2024/02/14 08:16:15;;;;;;;0.95;0.50;;;;;;;;;;10408495;28;20052;-73
2024/02/14 08:21:18;;;;;;;0.75;0.55;;;;;;;;;;10397625;28;20041;-73
2024/02/14 08:26:22;;;;;;;1.95;0.65;;;;;;;;;;10409961;28;20049;-73
2024/02/14 08:31:27;;;;;;;0.63;0.63;;;;;;;;;;10395939;28;20414;-73
2024/02/14 08:36:30;;;;;;;1.55;0.60;;;;;;;;;;10406287;28;20522;-73
2024/02/14 08:41:34;;;;;;;1.50;0.82;;;;;;;;;;10406799;28;20125;-73
2024/02/14 08:46:39;;;;;;;2.47;0.70;;;;;;;;;;10406316;28;20060;-73
2024/02/14 08:51:46;;;;;;;1.35;0.65;;;;;;;;;;10400792;28;20176;-73
2024/02/14 08:56:49;;;;;;;0.70;0.60;;;;;;;;;;10390497;28;20248;-73
2024/02/14 09:01:53;;;;;;;0.55;0.47;;;;;;;;;;10403186;28;20550;-73
2024/02/14 09:06:57;;;;;;;0.95;0.70;;;;;;;;;;10399178;28;20120;-72
2024/02/14 09:12:02;;;;;;;0.60;0.40;;;;;;;;;;10403256;28;20121;-73
2024/02/14 09:17:07;;;;;;;0.50;0.50;;;;;;;;;;10408321;28;20145;-73
2024/02/14 09:22:10;;;;;;;0.50;0.40;;;;;;;;;;10403014;28;20044;-73
2024/02/14 09:27:14;;;;;;;0.43;0.40;;;;;;;;;;10401230;28;20058;-73
2024/02/14 09:32:19;;;;;;;0.50;0.50;;;;;;;;;;10401840;28;20354;-73
2024/02/14 09:37:23;;;;;;;0.82;0.50;;;;;;;;;;10407781;28;20491;-73
2024/02/14 09:42:38;;;;;;;0.82;0.68;;;;;;;;;;10378177;28;20388;-73
2024/02/14 09:47:43;;;;;;;0.70;0.60;;;;;;;;;;10379464;28;20050;-73
2024/02/14 09:52:48;;;;;;;1.10;0.68;;;;;;;;;;10390097;28;20076;-73
2024/02/14 09:57:52;;;;;;;1.48;0.90;;;;;;;;;;10380959;28;20041;-73
2024/02/14 10:02:57;;;;;;;1.02;0.70;;;;;;;;;;10392130;28;20041;-73
2024/02/14 10:08:01;;;;;;;1.13;0.70;;;;;;;;;;10388186;28;20591;-73
2024/02/14 10:13:06;;;;;;;1.90;0.90;;;;;;;;;;10395012;28;20051;-73
2024/02/14 10:18:10;;;;;;;0.63;0.52;;;;;;;;;;10395754;28;20631;-73
2024/02/14 10:23:13;;;;;;;0.43;0.43;;;;;;;;;;10396644;28;20049;-73
2024/02/14 10:28:17;;;;;;;0.40;0.40;;;;;;;;;;10389853;28;20062;-73
2024/02/14 10:33:21;;;;;;;0.50;0.50;;;;;;;;;;10381077;28;20046;-73
2024/02/14 10:38:28;;;;;;;1.58;0.40;;;;;;;;;;10383019;28;20063;-73
2024/02/14 10:43:31;;;;;;;0.57;0.40;;;;;;;;;;10377040;28;20510;-73
2024/02/14 10:48:38;;;;;;;1.55;0.40;;;;;;;;;;10382794;28;20042;-73
2024/02/14 10:53:45;;;;;;;0.20;0.20;;;;;;;;;;10390674;28;20133;-73
2024/02/14 10:58:49;;;;;;;;;;;;;;;;;;10395060;28;20049;-73
2024/02/14 11:03:55;;;;;;;1.13;0.60;;;;;;;;;;10392216;28;19921;-73
2024/02/14 11:09:06;;;;;;;1.02;0.68;;;;;;;;;;10386000;28;20527;-73
2024/02/14 11:14:09;;;;;;;1.13;0.40;;;;;;;;;;10386877;28;20046;-73
2024/02/14 11:19:16;;;;;;;0.85;0.50;;;;;;;;;;10377434;28;20069;-73
2024/02/14 11:24:19;;;;;;;0.35;0.30;;;;;;;;;;10386239;28;20053;-73
2024/02/14 11:29:29;;;;;;;1.23;0.40;;;;;;;;;;10395976;28;20037;-73
2024/02/14 11:34:33;;;;;;;0.57;0.30;;;;;;;;;;10390623;28;20048;-73
2024/02/14 11:39:38;;;;;;;0.40;0.40;;;;;;;;;;10369495;28;20045;-73
2024/02/14 11:44:42;;;;;;;0.80;0.60;;;;;;;;;;10384539;28;20049;-73
2024/02/14 11:49:47;;;;;;;0.60;0.47;;;;;;;;;;10383187;28;20049;-72
2024/02/14 11:54:50;;;;;;;0.77;0.55;;;;;;;;;;10387140;28;20519;-73
2024/02/14 11:59:54;;;;;;;1.23;0.60;;;;;;;;;;10373042;28;20128;-73
2024/02/14 12:04:58;;;;;;;0.88;0.65;;;;;;;;;;10380133;28;20152;-73
2024/02/14 12:10:02;;;;;;;1.35;0.50;;;;;;;;;;10386717;28;20054;-73
2024/02/14 12:15:06;;;;;;;0.98;0.60;;;;;;;;;;10382193;28;20083;-73
2024/02/14 12:20:13;;;;;;;0.80;0.40;;;;;;;;;;10387848;28;20066;-73
2024/02/14 12:25:17;;;;;;;1.85;0.60;;;;;;;;;;10387559;28;20561;-73
2024/02/14 12:30:20;;;;;;;0.60;0.45;;;;;;;;;;10394331;28;20527;-73
2024/02/14 12:35:25;;;;;;;1.10;0.70;;;;;;;;;;10395366;28;20332;-73
2024/02/14 12:40:29;;;;;;;0.90;0.57;;;;;;;;;;10397128;28;20050;-73
2024/02/14 12:45:33;;;;;;;1.52;1.05;;;;;;;;;;10409059;28;20550;-73
2024/02/14 12:50:38;;;;;;;1.55;0.90;;;;;;;;;;10402929;28;20068;-74
2024/02/14 12:55:41;;;;;;;1.90;1.08;;;;;;;;;;10397844;28;20068;-74
2024/02/14 13:00:45;;;;;;;1.95;1.02;;;;;;;;;;10392276;28;20042;-74
2024/02/14 13:05:50;;;;;;;0.82;0.77;;;;;;;;;;10393976;28;20401;-74
2024/02/14 13:10:53;;;;;;;0.80;0.60;;;;;;;;;;10392271;28;20164;-74
2024/02/14 13:15:56;;;;;;;0.98;0.60;;;;;;;;;;10393695;28;20075;-74
2024/02/14 13:21:01;;;;;;;1.38;0.52;;;;;;;;;;10398470;28;20042;-74
2024/02/14 13:26:04;;;;;;;0.73;0.60;;;;;;;;;;10391835;28;20172;-74
2024/02/14 13:31:07;;;;;;;0.60;0.45;;;;;;;;;;10402984;28;20498;-74
2024/02/14 13:36:15;;;;;;;0.60;0.50;;;;;;;;;;10398801;28;20515;-74
2024/02/14 13:41:18;;;;;;;0.75;0.60;;;;;;;;;;10389282;28;20062;-74
2024/02/14 13:46:21;;;;;;;0.40;0.40;;;;;;;;;;10396200;28;20053;-73
2024/02/14 13:51:26;;;;;;;0.43;0.43;;;;;;;;;;10404394;28;20056;-73
2024/02/14 13:56:30;;;;;;;0.50;0.40;;;;;;;;;;10386683;28;20041;-73
2024/02/14 14:01:33;;;;;;;0.50;0.40;;;;;;;;;;10392364;28;20053;-73
2024/02/14 14:06:39;;;;;;;1.05;0.80;;;;;;;;;;10394545;28;20049;-74
2024/02/14 14:11:42;;;;;;;0.70;0.68;;;;;;;;;;10394304;28;20627;-74
2024/02/14 14:16:45;;;;;;;0.75;0.60;;;;;;;;;;10374201;28;20042;-74
2024/02/14 14:21:50;;;;;;;0.30;0.30;;;;;;;;;;10396407;28;20043;-74
2024/02/14 14:26:53;;;;;;;1.27;0.40;;;;;;;;;;10403083;28;20068;-74
2024/02/14 14:31:57;;;;;;;0.75;0.52;;;;;;;;;;10393011;28;20040;-74
2024/02/14 14:37:02;;;;;;;1.02;0.52;;;;;;;;;;10390567;28;20450;-74
2024/02/14 14:42:07;;;;;;;0.80;0.40;;;;;;;;;;10395080;28;20387;-74
2024/02/14 14:47:11;;;;;;;0.40;0.40;;;;;;;;;;10393980;28;20688;-74
2024/02/14 14:52:16;;;;;;;0.50;0.50;;;;;;;;;;10390685;28;20034;-73
2024/02/14 14:57:19;;;;;;;0.90;0.43;;;;;;;;;;10397483;28;20526;-73
2024/02/14 15:02:22;;;;;;;0.30;0.28;;;;;;;;;;10406292;28;20112;-74
2024/02/14 15:07:27;;;;;;;0.55;0.40;;;;;;;;;;10390395;28;20141;-74
2024/02/14 15:12:30;;;;;;;0.20;0.20;;;;;;;;;;10384005;28;20406;-74
2024/02/14 15:17:34;;;;;;;0.35;0.30;;;;;;;;;;10407217;28;20045;-73
2024/02/14 15:22:39;;;;;;;0.40;0.40;;;;;;;;;;10394944;28;20123;-73
2024/02/14 15:27:54;;;;;;;0.40;0.40;;;;;;;;;;10392518;28;20384;-73
2024/02/14 15:38:20;;;;;;;0.35;0.35;;;;;;;;;;10401338;28;20079;-74
2024/02/14 15:43:24;;;;;;;1.38;0.60;;;;;;;;;;10385408;28;20060;-74
2024/02/14 15:48:29;;;;;;;1.15;0.85;;;;;;;;;;10390032;28;20053;-73
2024/02/14 15:53:35;;;;;;;0.80;0.80;;;;;;;;;;10394630;28;20053;-74
2024/02/14 15:58:38;;;;;;;0.95;0.85;;;;;;;;;;10399152;28;20072;-73
2024/02/14 16:03:41;;;;;;;0.60;0.60;;;;;;;;;;10399200;28;20490;-73
2024/02/14 16:08:46;;;;;;;0.55;0.55;;;;;;;;;;10399915;28;20054;-74
2024/02/14 16:13:49;;;;;;;0.50;0.50;;;;;;;;;;10402122;28;20040;-74
2024/02/14 16:18:53;;;;;;;0.70;0.70;;;;;;;;;;10398330;28;20525;-74
2024/02/14 16:23:57;;;;;;;0.60;0.60;;;;;;;;;;10394975;28;20069;-73
2024/02/14 16:29:00;;;;;;;0.47;0.47;;;;;;;;;;10398734;28;21001;-73
2024/02/14 16:34:04;;;;;;;0.57;0.57;;;;;;;;;;10398857;28;20053;-73
2024/02/14 16:39:09;;;;;;;0.60;0.60;;;;;;;;;;10404499;28;20129;-73
2024/02/14 16:44:13;;;;;;;0.63;0.40;;;;;;;;;;10395871;28;20140;-73
2024/02/14 16:49:17;;;;;;;0.30;0.30;;;;;;;;;;10386497;28;20384;-73
2024/02/14 16:54:22;;;;;;;1.55;0.68;;;;;;;;;;10378561;28;20050;-74
2024/02/14 16:59:26;;;;;;;0.43;0.40;;;;;;;;;;10392156;28;20060;-74
2024/02/14 17:04:29;;;;;;;0.30;0.30;;;;;;;;;;10389664;28;20053;-74
2024/02/14 17:09:34;;;;;;;0.32;0.32;;;;;;;;;;10395968;28;20132;-74
2024/02/14 17:14:38;;;;;;;0.40;0.40;;;;;;;;;;10387791;28;20511;-73
2024/02/14 17:19:42;;;;;;;1.00;0.50;;;;;;;;;;10402108;28;20061;-74
2024/02/14 17:24:47;;;;;;;0.80;0.57;;;;;;;;;;10404403;28;20048;-74
2024/02/14 17:29:50;;;;;;;0.60;0.60;;;;;;;;;;10412568;28;20435;-74
2024/02/14 17:34:53;;;;;;;0.47;0.40;;;;;;;;;;10415375;28;20490;-74
2024/02/14 17:39:58;;;;;;;0.60;0.60;;;;;;;;;;10405929;28;20045;-74
2024/02/14 17:45:02;;;;;;;0.40;0.40;;;;;;;;;;10402963;28;20141;-74
2024/02/14 17:50:06;;;;;;;0.65;0.50;;;;;;;;;;10403724;28;20128;-74
2024/02/14 17:55:11;;;;;;;0.80;0.50;;;;;;;;;;10401171;28;20125;-74
2024/02/14 18:00:15;;;;;;;0.95;0.60;;;;;;;;;;10400958;28;20053;-74
2024/02/14 18:05:19;;;;;;;0.93;0.50;;;;;;;;;;10401917;28;20096;-73
2024/02/14 18:10:25;;;;;;;0.85;0.60;;;;;;;;;;10397602;28;20073;-74
2024/02/14 18:15:29;;;;;;;1.30;0.77;;;;;;;;;;10403070;28;20045;-74
2024/02/14 18:20:33;;;;;;;0.73;0.50;;;;;;;;;;10404967;28;20053;-73
2024/02/14 18:25:38;;;;;;;1.55;0.80;;;;;;;;;;10380773;28;20411;-74
2024/02/14 18:30:41;;;;;;;1.38;0.75;;;;;;;;;;10403348;28;20060;-73
2024/02/14 18:35:44;;;;;;;1.02;0.60;;;;;;;;;;10388552;28;20685;-74
2024/02/14 18:40:49;;;;;;;0.90;0.73;;;;;;;;;;10394272;28;20183;-74
2024/02/14 18:45:53;;;;;;;1.08;0.60;;;;;;;;;;10393355;28;20674;-74
2024/02/14 18:51:01;;;;;;;2.22;0.82;;;;;;;;;;10398020;28;20584;-74
2024/02/14 18:56:07;;;;;;;0.60;0.60;;;;;;;;;;10390456;28;20038;-74
2024/02/14 19:01:11;;;;;;;1.00;0.77;;;;;;;;;;10402495;28;20049;-74
2024/02/14 19:06:15;;;;;;;0.85;0.70;;;;;;;;;;10401353;28;20048;-74
2024/02/14 19:11:20;;;;;;;1.50;0.60;;;;;;;;;;10401787;28;20065;-74
2024/02/14 19:16:23;;;;;;;0.82;0.70;;;;;;;;;;10400010;28;20041;-74
2024/02/14 19:21:31;;;;;;;0.80;0.68;;;;;;;;;;10403248;28;20499;-74
2024/02/14 19:26:36;;;;;;;1.40;0.80;;;;;;;;;;10399646;28;20056;-74
2024/02/14 19:31:39;;;;;;;1.45;0.90;;;;;;;;;;10403770;28;20686;-75
2024/02/14 19:36:42;;;;;;;0.75;0.75;;;;;;;;;;10407764;28;20042;-74
2024/02/14 19:41:47;;;;;;;0.93;0.75;;;;;;;;;;10403667;28;20034;-74
2024/02/14 19:46:51;;;;;;;0.90;0.75;;;;;;;;;;10402097;28;20037;-74
2024/02/14 19:51:55;;;;;;;1.05;0.90;;;;;;;;;;10399333;28;20041;-74
2024/02/14 19:57:00;;;;;;;0.60;0.60;;;;;;;;;;10390722;28;20037;-74
2024/02/14 20:02:03;;;;;;;1.10;0.75;;;;;;;;;;10393043;28;20064;-74
2024/02/14 20:07:07;;;;;;;0.52;0.52;;;;;;;;;;10404071;28;20037;-74
2024/02/14 20:12:12;;;;;;;0.50;0.50;;;;;;;;;;10387534;28;20045;-74
2024/02/14 20:17:15;;;;;;;0.60;0.52;;;;;;;;;;10391139;28;20042;-74
2024/02/14 20:22:19;;;;;;;0.77;0.68;;;;;;;;;;10396740;28;20542;-74
2024/02/14 20:27:24;;;;;;;0.80;0.63;;;;;;;;;;10393296;28;20038;-74
2024/02/14 20:32:44;;;;;;;1.85;1.05;;;;;;;;;;10399596;28;20119;-74
2024/02/14 20:37:58;;;;;;;2.88;1.70;;;;;;;;;;10400747;28;20188;-73
2024/02/14 20:43:02;;;;;;;1.45;0.98;;;;;;;;;;10403423;28;20560;-73
2024/02/14 20:48:07;;;;;;;0.57;0.57;;;;;;;;;;10395373;28;20700;-73
2024/02/14 20:53:11;;;;;;;0.60;0.57;;;;;;;;;;10396568;28;20053;-73
2024/02/14 20:58:15;;;;;;;0.80;0.68;;;;;;;;;;10409346;28;20457;-73
2024/02/14 21:03:19;;;;;;;1.33;0.80;;;;;;;;;;10399863;28;20078;-73
2024/02/14 21:08:22;;;;;;;0.85;0.60;;;;;;;;;;10402653;28;20096;-73
2024/02/14 21:13:27;;;;;;;0.50;0.50;;;;;;;;;;10405419;28;20037;-73
2024/02/14 21:18:30;;;;;;;0.50;0.43;;;;;;;;;;10400827;28;20056;-73
2024/02/14 21:23:34;;;;;;;0.63;0.40;;;;;;;;;;10390679;28;20065;-73
2024/02/14 21:28:39;;;;;;;0.50;0.43;;;;;;;;;;10388978;28;20042;-73
2024/02/14 21:33:43;;;;;;;0.40;0.40;;;;;;;;;;10406999;28;20057;-73
2024/02/14 21:38:47;;;;;;;0.65;0.50;;;;;;;;;;10412299;28;20066;-73
2024/02/14 21:43:51;;;;;;;0.45;0.43;;;;;;;;;;10394950;28;20069;-73
2024/02/14 21:48:57;;;;;;;0.95;0.40;;;;;;;;;;10407804;28;20045;-73
2024/02/14 21:54:02;;;;;;;0.60;0.47;;;;;;;;;;10406764;28;20425;-74
2024/02/14 21:59:07;;;;;;;0.43;0.43;;;;;;;;;;10397124;28;20538;-74
2024/02/14 22:04:10;;;;;;;0.40;0.40;;;;;;;;;;10401027;28;20652;-74
2024/02/14 22:09:15;;;;;;;0.65;0.52;;;;;;;;;;10392059;28;20569;-74
2024/02/14 22:14:20;;;;;;;0.50;0.50;;;;;;;;;;10404584;28;20056;-74
2024/02/14 22:19:23;;;;;;;0.60;0.60;;;;;;;;;;10410870;28;20553;-74
2024/02/14 22:24:28;;;;;;;0.55;0.40;;;;;;;;;;10406402;28;20524;-74
2024/02/14 22:29:33;;;;;;;1.13;0.57;;;;;;;;;;10397156;28;20056;-74
2024/02/14 22:34:37;;;;;;;0.98;0.40;;;;;;;;;;10394131;28;20124;-74
2024/02/14 22:39:40;;;;;;;0.63;0.60;;;;;;;;;;10408925;28;20046;-74
2024/02/14 22:44:45;;;;;;;0.70;0.50;;;;;;;;;;10396716;28;20054;-74
2024/02/14 22:49:48;;;;;;;2.40;0.82;;;;;;;;;;10400071;28;20053;-74
2024/02/14 22:54:52;;;;;;;0.88;0.70;;;;;;;;;;10406411;28;20518;-74
2024/02/14 22:59:57;;;;;;;0.68;0.60;;;;;;;;;;10399628;28;20079;-74
2024/02/14 23:05:00;;;;;;;1.00;0.90;;;;;;;;;;10387581;28;20125;-74
2024/02/14 23:10:04;;;;;;;1.55;0.77;;;;;;;;;;10403314;28;20034;-74
2024/02/14 23:26:26;;;;;;;1.70;0.73;;;;;;;;;;12694410;22;20441;-82
2024/02/14 23:31:30;;;;;;;1.35;0.90;;;;;;;;;;10349128;28;20046;-83
2024/02/14 23:36:33;;;;;;;1.58;0.80;;;;;;;;;;10359875;28;20069;-82
2024/02/14 23:41:38;;;;;;;0.73;0.73;;;;;;;;;;10347953;28;20056;-83
2024/02/14 23:46:41;;;;;;;1.27;1.00;;;;;;;;;;10361599;28;20566;-83
2024/02/14 23:51:44;;;;;;;2.88;1.02;;;;;;;;;;10345306;28;20110;-82
2024/02/14 23:56:49;;;;;;;2.95;0.90;;;;;;;;;;10373433;28;20073;-82
